createdAt,value
2019-05-14T00:02:12.198Z,8.29
2019-05-14T00:04:42.500Z,8.08
2019-05-14T00:07:12.102Z,8.08
2019-05-14T00:09:41.613Z,8.02
2019-05-14T00:12:11.458Z,8.00
2019-05-14T00:14:43.574Z,7.93
2019-05-14T00:17:11.553Z,7.93
2019-05-14T00:19:41.583Z,8.09
2019-05-14T00:22:11.888Z,7.94
2019-05-14T00:24:41.560Z,7.86
2019-05-14T00:27:11.790Z,7.99
2019-05-14T00:29:42.012Z,7.99
2019-05-14T00:32:11.476Z,7.73
2019-05-14T00:34:42.426Z,7.73
2019-05-14T00:37:11.773Z,7.86
2019-05-14T00:39:41.638Z,7.66
2019-05-14T00:42:12.564Z,7.59
2019-05-14T00:44:53.640Z,7.59
2019-05-14T00:47:12.765Z,7.51
2019-05-14T00:49:42.635Z,7.41
2019-05-14T00:52:12.096Z,7.41
2019-05-14T00:54:42.031Z,7.48
2019-05-14T00:57:11.849Z,7.45
2019-05-14T00:59:41.908Z,7.45
2019-05-14T01:02:11.604Z,7.24
2019-05-14T01:04:42.887Z,7.23
2019-05-14T01:07:12.251Z,7.23
2019-05-14T01:09:42.123Z,7.17
2019-05-14T01:12:12.167Z,7.22
2019-05-14T01:14:42.540Z,7.10
2019-05-14T01:17:11.908Z,6.95
2019-05-14T01:19:42.532Z,6.95
2019-05-14T01:22:12.585Z,6.86
2019-05-14T01:24:42.208Z,6.86
2019-05-14T01:27:12.383Z,6.94
2019-05-14T01:29:42.690Z,6.81
2019-05-14T01:32:12.490Z,6.92
2019-05-14T01:34:42.280Z,6.92
2019-05-14T01:37:12.093Z,6.78
2019-05-14T01:39:42.012Z,6.65
2019-05-14T01:42:12.596Z,6.65
2019-05-14T01:44:41.989Z,6.66
2019-05-14T01:47:12.654Z,6.69
2019-05-14T01:49:42.729Z,6.64
2019-05-14T01:52:12.121Z,6.43
2019-05-14T01:54:42.723Z,6.36
2019-05-14T01:57:11.905Z,6.36
2019-05-14T01:59:42.866Z,6.48
2019-05-14T02:02:12.035Z,6.36
2019-05-14T02:04:42.793Z,6.36
2019-05-14T02:07:15.553Z,6.23
2019-05-14T02:09:43.123Z,6.18
2019-05-14T02:12:12.242Z,6.34
2019-05-14T02:14:42.396Z,6.19
2019-05-14T02:17:12.591Z,6.36
2019-05-14T02:19:42.758Z,6.36
2019-05-14T02:22:11.923Z,6.42
2019-05-14T02:24:41.752Z,6.34
2019-05-14T02:27:12.489Z,6.20
2019-05-14T02:29:41.892Z,6.10
2019-05-14T02:32:11.327Z,6.18
2019-05-14T02:34:40.776Z,5.98
2019-05-14T02:37:09.945Z,5.98
2019-05-14T02:39:40.925Z,6.07
2019-05-14T02:42:10.044Z,5.92
2019-05-14T02:44:40.712Z,6.11
2019-05-14T02:47:10.486Z,5.83
2019-05-14T02:49:40.186Z,6.09
2019-05-14T02:52:10.374Z,5.92
2019-05-14T02:54:40.812Z,5.78
2019-05-14T02:57:10.876Z,5.76
2019-05-14T02:59:40.462Z,5.69
2019-05-14T03:02:10.480Z,5.77
2019-05-14T03:04:40.063Z,5.54
2019-05-14T03:07:11.163Z,5.60
2019-05-14T03:09:40.725Z,5.51
2019-05-14T03:12:10.533Z,5.64
2019-05-14T03:14:40.300Z,5.95
2019-05-14T03:17:10.932Z,5.95
2019-05-14T03:19:41.083Z,5.78
2019-05-14T03:22:10.573Z,5.96
2019-05-14T03:24:40.047Z,5.97
2019-05-14T03:27:10.034Z,5.86
2019-05-14T03:29:40.296Z,5.65
2019-05-14T03:32:12.848Z,5.56
2019-05-14T03:34:42.782Z,5.74
2019-05-14T03:37:13.636Z,5.69
2019-05-14T03:39:42.255Z,5.68
2019-05-14T03:42:11.412Z,5.75
2019-05-14T03:44:40.879Z,5.68
2019-05-14T03:47:10.795Z,5.58
2019-05-14T03:49:40.327Z,5.65
2019-05-14T03:52:09.998Z,5.37
2019-05-14T03:54:41.071Z,5.43
2019-05-14T03:57:10.551Z,5.51
2019-05-14T03:59:40.656Z,5.54
2019-05-14T04:02:10.807Z,5.49
2019-05-14T04:04:40.356Z,5.33
2019-05-14T04:07:30.590Z,5.34
2019-05-14T04:10:00.873Z,5.37
2019-05-14T04:12:32.629Z,5.51
2019-05-14T04:15:04.144Z,5.38
2019-05-14T04:17:41.069Z,5.29
2019-05-14T04:20:09.473Z,5.26
2019-05-14T04:22:40.719Z,5.14
2019-05-14T04:25:11.336Z,5.05
2019-05-14T04:27:40.929Z,5.40
2019-05-14T04:30:12.400Z,5.51
2019-05-14T04:32:42.356Z,5.41
2019-05-14T04:35:12.180Z,5.27
2019-05-14T04:37:41.563Z,5.32
2019-05-14T04:40:10.851Z,5.50
2019-05-14T04:42:40.745Z,5.70
2019-05-14T04:45:11.250Z,6.11
2019-05-14T04:47:42.129Z,6.34
2019-05-14T04:50:12.428Z,6.52
2019-05-14T04:52:41.500Z,7.07
2019-05-14T04:55:10.903Z,7.07
2019-05-14T04:57:40.056Z,7.18
2019-05-14T05:00:12.263Z,7.25
2019-05-14T05:02:40.933Z,7.71
2019-05-14T05:05:10.422Z,7.79
2019-05-14T05:07:40.487Z,7.83
2019-05-14T05:10:11.125Z,8.06
2019-05-14T05:12:40.290Z,7.80
2019-05-14T05:15:09.864Z,7.70
2019-05-14T05:17:47.147Z,7.50
2019-05-14T05:20:10.454Z,7.33
2019-05-14T05:22:40.096Z,7.27
2019-05-14T05:25:10.977Z,7.54
2019-05-14T05:27:40.151Z,7.44
2019-05-14T05:30:10.541Z,7.24
2019-05-14T05:32:39.642Z,7.19
2019-05-14T05:35:09.823Z,7.12
2019-05-14T05:37:38.882Z,7.12
2019-05-14T05:40:09.205Z,7.19
2019-05-14T05:42:38.944Z,7.43
2019-05-14T05:45:10.693Z,7.75
2019-05-14T05:47:54.041Z,8.09
2019-05-14T05:50:11.751Z,8.19
2019-05-14T05:52:40.788Z,8.26
2019-05-14T05:55:10.730Z,8.39
2019-05-14T05:57:39.755Z,8.32
2019-05-14T06:00:10.041Z,8.25
2019-05-14T06:02:39.807Z,8.27
2019-05-14T06:05:09.792Z,8.10
2019-05-14T06:07:39.699Z,8.49
2019-05-14T06:10:09.416Z,8.33
2019-05-14T06:12:39.118Z,8.30
2019-05-14T06:15:09.873Z,8.34
2019-05-14T06:17:39.424Z,8.59
2019-05-14T06:20:09.302Z,8.81
2019-05-14T06:22:38.833Z,9.20
2019-05-14T06:25:10.924Z,9.66
2019-05-14T06:27:39.559Z,9.52
2019-05-14T06:30:09.943Z,9.31
2019-05-14T06:32:39.173Z,9.05
2019-05-14T06:35:09.389Z,9.05
2019-05-14T06:37:38.732Z,9.19
2019-05-14T06:40:09.091Z,9.02
2019-05-14T06:42:39.490Z,9.32
2019-05-14T06:45:09.675Z,9.49
2019-05-14T06:47:38.718Z,9.47
2019-05-14T06:50:08.713Z,9.59
2019-05-14T06:52:38.785Z,9.19
2019-05-14T06:55:09.018Z,9.47
2019-05-14T06:57:39.339Z,9.48
2019-05-14T07:00:09.737Z,9.68
2019-05-14T07:02:43.470Z,9.79
2019-05-14T07:05:10.377Z,9.76
2019-05-14T07:07:40.375Z,10.05
2019-05-14T07:10:10.823Z,10.19
2019-05-14T07:12:39.846Z,10.23
2019-05-14T07:15:09.736Z,10.68
2019-05-14T07:17:39.054Z,11.53
2019-05-14T07:20:09.350Z,12.42
2019-05-14T07:22:39.112Z,12.68
2019-05-14T07:25:10.093Z,14.23
2019-05-14T07:27:39.552Z,15.52
2019-05-14T07:30:09.995Z,16.57
2019-05-14T07:32:39.715Z,16.85
2019-05-14T07:35:09.557Z,17.30
2019-05-14T07:37:39.614Z,16.89
2019-05-14T07:40:10.524Z,16.47
2019-05-14T07:42:39.587Z,15.62
2019-05-14T07:45:09.858Z,15.23
2019-05-14T07:47:39.277Z,15.52
2019-05-14T07:50:10.063Z,14.77
2019-05-14T07:52:45.405Z,16.35
2019-05-14T07:55:10.446Z,16.98
2019-05-14T07:57:39.770Z,17.84
2019-05-14T08:00:11.258Z,17.79
2019-05-14T08:02:40.305Z,16.46
2019-05-14T08:05:09.875Z,16.50
2019-05-14T08:07:39.107Z,16.63
2019-05-14T08:10:09.786Z,16.87
2019-05-14T08:12:39.309Z,16.29
2019-05-14T08:15:17.757Z,16.09
2019-05-14T08:17:40.471Z,15.12
2019-05-14T08:20:10.664Z,14.57
2019-05-14T08:22:40.085Z,14.06
2019-05-14T08:25:10.567Z,13.74
2019-05-14T08:27:39.699Z,14.48
2019-05-14T08:30:11.253Z,14.03
2019-05-14T08:32:40.313Z,14.33
2019-05-14T08:35:10.175Z,14.50
2019-05-14T08:37:39.238Z,13.07
2019-05-14T08:40:09.604Z,13.86
2019-05-14T08:42:38.942Z,13.24
2019-05-14T08:45:10.570Z,14.39
2019-05-14T08:47:39.414Z,16.70
2019-05-14T08:50:09.447Z,18.28
2019-05-14T08:52:39.419Z,19.22
2019-05-14T08:55:10.858Z,19.71
2019-05-14T08:57:39.910Z,19.32
2019-05-14T09:00:13.781Z,16.46
2019-05-14T09:02:40.874Z,16.95
2019-05-14T09:05:11.174Z,15.19
2019-05-14T09:07:40.370Z,16.83
2019-05-14T09:10:10.000Z,17.46
2019-05-14T09:12:39.060Z,18.76
2019-05-14T09:15:09.914Z,18.12
2019-05-14T09:17:39.409Z,18.72
2019-05-14T09:20:11.450Z,16.43
2019-05-14T09:22:40.017Z,17.17
2019-05-14T09:25:10.310Z,18.34
2019-05-14T09:27:39.328Z,15.35
2019-05-14T09:30:09.883Z,15.88
2019-05-14T09:32:39.253Z,16.10
2019-05-14T09:35:09.780Z,16.51
2019-05-14T09:37:39.951Z,16.75
2019-05-14T09:40:09.810Z,16.90
2019-05-14T09:42:39.431Z,16.78
2019-05-14T09:45:11.608Z,16.11
2019-05-14T09:47:40.863Z,16.61
2019-05-14T09:50:18.576Z,16.70
2019-05-14T09:52:42.080Z,16.85
2019-05-14T09:55:11.770Z,17.51
2019-05-14T09:57:40.802Z,15.88
2019-05-14T10:00:10.668Z,15.87
2019-05-14T10:02:39.745Z,15.92
2019-05-14T10:05:09.633Z,17.31
2019-05-14T10:07:39.367Z,16.69
2019-05-14T10:10:09.626Z,18.01
2019-05-14T10:12:51.187Z,17.56
2019-05-14T10:15:10.514Z,16.81
2019-05-14T10:17:39.593Z,17.49
2019-05-14T10:20:09.238Z,16.98
2019-05-14T10:22:39.717Z,16.35
2019-05-14T10:25:09.944Z,16.93
2019-05-14T10:27:39.008Z,17.65
2019-05-14T10:30:10.560Z,17.21
2019-05-14T10:32:41.696Z,17.02
2019-05-14T10:35:12.227Z,17.76
2019-05-14T10:37:41.854Z,16.12
2019-05-14T10:40:11.612Z,16.83
2019-05-14T10:42:40.768Z,16.78
2019-05-14T10:45:12.876Z,16.33
2019-05-14T10:47:41.610Z,17.21
2019-05-14T10:50:13.809Z,17.81
2019-05-14T10:52:41.852Z,17.01
2019-05-14T10:55:11.515Z,16.94
2019-05-14T10:57:40.601Z,16.75
2019-05-14T11:00:11.658Z,16.39
2019-05-14T11:02:40.711Z,16.79
2019-05-14T11:05:10.680Z,17.99
2019-05-14T11:07:41.744Z,17.21
2019-05-14T11:10:11.587Z,17.00
2019-05-14T11:12:40.847Z,16.53
2019-05-14T11:15:10.847Z,16.58
2019-05-14T11:17:40.752Z,16.84
2019-05-14T11:20:11.273Z,17.56
2019-05-14T11:22:40.322Z,18.22
2019-05-14T11:25:10.694Z,18.31
2019-05-14T11:27:39.746Z,17.46
2019-05-14T11:30:09.933Z,17.61
2019-05-14T11:32:39.286Z,17.82
2019-05-14T11:35:12.854Z,17.94
2019-05-14T11:37:41.417Z,17.72
2019-05-14T11:40:11.100Z,17.67
2019-05-14T11:42:40.687Z,17.96
2019-05-14T11:45:11.095Z,18.01
2019-05-14T11:47:40.133Z,18.12
2019-05-14T11:50:11.530Z,17.91
2019-05-14T11:52:40.648Z,17.32
2019-05-14T11:55:10.336Z,17.93
2019-05-14T11:57:39.450Z,18.08
2019-05-14T12:00:10.397Z,17.94
2019-05-14T12:02:39.523Z,17.52
2019-05-14T12:05:10.602Z,17.89
2019-05-14T12:07:39.642Z,18.04
2019-05-14T12:10:09.644Z,18.10
2019-05-14T12:12:38.706Z,17.94
2019-05-14T12:15:09.033Z,17.67
2019-05-14T12:17:39.416Z,17.38
2019-05-14T12:20:10.286Z,17.78
2019-05-14T12:22:39.638Z,17.82
2019-05-14T12:25:09.934Z,17.86
2019-05-14T12:27:39.040Z,17.89
2019-05-14T12:30:09.814Z,17.66
2019-05-14T12:32:39.982Z,18.26
2019-05-14T12:35:09.490Z,18.49
2019-05-14T12:37:39.226Z,18.11
2019-05-14T12:40:09.208Z,18.27
2019-05-14T12:42:39.176Z,17.58
2019-05-14T12:45:10.853Z,17.46
2019-05-14T12:47:39.958Z,17.17
2019-05-14T12:50:11.108Z,16.80
2019-05-14T12:52:40.151Z,16.90
2019-05-14T12:55:10.037Z,16.91
2019-05-14T12:57:39.772Z,17.80
2019-05-14T13:00:10.403Z,17.95
2019-05-14T13:02:39.541Z,17.98
2019-05-14T13:05:09.163Z,17.43
2019-05-14T13:07:41.759Z,17.72
2019-05-14T13:10:10.829Z,17.59
2019-05-14T13:12:39.913Z,17.80
2019-05-14T13:15:10.272Z,17.73
2019-05-14T13:17:39.585Z,18.28
2019-05-14T13:20:13.609Z,18.07
2019-05-14T13:22:45.970Z,17.88
2019-05-14T13:25:11.668Z,18.13
2019-05-14T13:27:40.797Z,18.27
2019-05-14T13:30:11.393Z,18.55
2019-05-14T13:32:40.604Z,18.68
2019-05-14T13:35:13.529Z,18.54
2019-05-14T13:37:41.119Z,17.87
2019-05-14T13:40:13.783Z,17.41
2019-05-14T13:42:44.527Z,17.65
2019-05-14T13:45:14.312Z,17.74
2019-05-14T13:47:43.356Z,18.10
2019-05-14T13:50:13.153Z,18.37
2019-05-14T13:52:58.189Z,18.44
2019-05-14T13:55:13.561Z,18.62
2019-05-14T13:57:42.611Z,18.19
2019-05-14T14:00:12.480Z,18.60
2019-05-14T14:02:41.637Z,18.20
2019-05-14T14:05:11.017Z,18.32
2019-05-14T14:07:43.873Z,17.93
2019-05-14T14:10:11.622Z,17.67
2019-05-14T14:12:40.801Z,17.59
2019-05-14T14:15:10.390Z,17.97
2019-05-14T14:17:39.906Z,18.50
2019-05-14T14:20:10.328Z,18.10
2019-05-14T14:22:40.434Z,17.95
2019-05-14T14:25:10.109Z,17.84
2019-05-14T14:27:41.041Z,18.17
2019-05-14T14:30:10.942Z,18.10
2019-05-14T14:32:40.936Z,18.31
2019-05-14T14:35:11.759Z,18.53
2019-05-14T14:37:40.783Z,17.85
2019-05-14T14:40:11.173Z,17.67
2019-05-14T14:42:40.747Z,17.56
2019-05-14T14:45:11.062Z,17.66
2019-05-14T14:47:40.304Z,18.02
2019-05-14T14:50:10.470Z,18.31
2019-05-14T14:52:39.504Z,18.38
2019-05-14T14:55:09.444Z,18.37
2019-05-14T14:57:45.372Z,18.32
2019-05-14T15:00:11.460Z,18.19
2019-05-14T15:02:41.397Z,17.79
2019-05-14T15:05:14.241Z,17.96
2019-05-14T15:07:42.573Z,18.03
2019-05-14T15:10:12.849Z,18.44
2019-05-14T15:12:42.243Z,18.29
2019-05-14T15:15:11.819Z,18.14
2019-05-14T15:17:40.839Z,18.11
2019-05-14T15:20:10.856Z,17.86
2019-05-14T15:22:40.284Z,17.87
2019-05-14T15:25:09.469Z,17.48
2019-05-14T15:27:38.812Z,17.75
2019-05-14T15:30:09.315Z,17.93
2019-05-14T15:32:38.422Z,18.14
2019-05-14T15:35:11.444Z,18.15
2019-05-14T15:37:42.866Z,18.16
2019-05-14T15:40:12.469Z,18.02
2019-05-14T15:42:41.569Z,17.78
2019-05-14T15:45:11.445Z,17.70
2019-05-14T15:47:40.467Z,17.75
2019-05-14T15:50:11.465Z,17.82
2019-05-14T15:52:40.675Z,18.03
2019-05-14T15:55:11.376Z,17.89
2019-05-14T15:57:40.406Z,18.03
2019-05-14T16:00:10.910Z,18.09
2019-05-14T16:02:40.166Z,18.04
2019-05-14T16:05:10.198Z,17.87
2019-05-14T16:07:39.821Z,17.71
2019-05-14T16:10:10.519Z,17.75
2019-05-14T16:12:40.302Z,17.63
2019-05-14T16:15:10.049Z,17.44
2019-05-14T16:17:48.460Z,17.37
2019-05-14T16:20:10.865Z,17.36
2019-05-14T16:22:40.259Z,17.53
2019-05-14T16:25:10.382Z,17.58
2019-05-14T16:27:39.991Z,17.60
2019-05-14T16:30:10.485Z,17.45
2019-05-14T16:32:40.013Z,17.54
2019-05-14T16:35:09.807Z,17.52
2019-05-14T16:37:39.502Z,17.43
2019-05-14T16:40:10.770Z,17.33
2019-05-14T16:42:40.288Z,17.25
2019-05-14T16:45:10.153Z,17.00
2019-05-14T16:47:40.147Z,17.22
2019-05-14T16:50:10.526Z,17.36
2019-05-14T16:52:42.173Z,17.25
2019-05-14T16:55:22.547Z,17.09
2019-05-14T16:57:42.473Z,17.16
2019-05-14T17:00:12.566Z,17.08
2019-05-14T17:02:42.256Z,17.11
2019-05-14T17:05:11.939Z,17.10
2019-05-14T17:07:41.075Z,16.96
2019-05-14T17:10:10.927Z,16.96
2019-05-14T17:12:52.628Z,16.88
2019-05-14T17:15:11.405Z,16.98
2019-05-14T17:17:40.535Z,17.04
2019-05-14T17:20:10.200Z,17.03
2019-05-14T17:22:40.039Z,16.79
2019-05-14T17:25:10.010Z,16.80
2019-05-14T17:27:39.719Z,16.84
2019-05-14T17:30:10.114Z,16.68
2019-05-14T17:32:39.570Z,16.66
2019-05-14T17:35:10.717Z,16.57
2019-05-14T17:37:40.114Z,16.54
2019-05-14T17:40:09.928Z,16.47
2019-05-14T17:42:39.599Z,16.40
2019-05-14T17:45:10.013Z,16.31
2019-05-14T17:47:40.219Z,16.22
2019-05-14T17:50:09.920Z,16.04
2019-05-14T17:52:43.711Z,16.04
2019-05-14T17:55:12.049Z,16.06
2019-05-14T17:57:46.582Z,16.08
2019-05-14T18:00:13.277Z,16.06
2019-05-14T18:02:42.361Z,16.00
2019-05-14T18:05:11.966Z,16.04
2019-05-14T18:07:40.973Z,15.98
2019-05-14T18:10:10.997Z,15.89
2019-05-14T18:12:40.204Z,15.86
2019-05-14T18:15:10.034Z,15.89
2019-05-14T18:17:39.575Z,15.85
2019-05-14T18:20:09.423Z,15.87
2019-05-14T18:22:42.091Z,15.80
2019-05-14T18:25:09.499Z,15.74
2019-05-14T18:27:39.408Z,15.73
2019-05-14T18:30:10.116Z,15.70
2019-05-14T18:32:39.296Z,15.69
2019-05-14T18:35:08.686Z,15.62
2019-05-14T18:37:38.923Z,15.64
2019-05-14T18:40:09.323Z,15.65
2019-05-14T18:42:39.025Z,15.53
2019-05-14T18:45:09.061Z,15.55
2019-05-14T18:47:39.871Z,15.46
2019-05-14T18:50:09.421Z,15.42
2019-05-14T18:52:40.002Z,15.34
2019-05-14T18:55:10.002Z,15.25
2019-05-14T18:57:39.250Z,15.22
2019-05-14T19:00:09.631Z,15.17
2019-05-14T19:02:39.386Z,15.08
2019-05-14T19:05:09.527Z,14.99
2019-05-14T19:07:39.531Z,14.88
2019-05-14T19:10:10.190Z,14.81
2019-05-14T19:12:39.225Z,14.70
2019-05-14T19:15:09.073Z,14.71
2019-05-14T19:17:38.871Z,14.63
2019-05-14T19:20:08.940Z,14.57
2019-05-14T19:22:39.574Z,14.51
2019-05-14T19:25:09.839Z,14.34
2019-05-14T19:27:38.883Z,14.27
2019-05-14T19:30:09.044Z,14.20
2019-05-14T19:32:39.357Z,14.19
2019-05-14T19:35:09.133Z,14.18
2019-05-14T19:37:39.114Z,14.02
2019-05-14T19:40:09.409Z,13.94
2019-05-14T19:42:39.355Z,13.92
2019-05-14T19:45:09.589Z,13.80
2019-05-14T19:47:40.053Z,13.81
2019-05-14T19:50:11.259Z,13.63
2019-05-14T19:52:40.350Z,13.59
2019-05-14T19:55:09.613Z,13.50
2019-05-14T19:57:38.681Z,13.43
2019-05-14T20:00:09.837Z,13.10
2019-05-14T20:02:38.968Z,12.96
2019-05-14T20:05:09.213Z,12.63
2019-05-14T20:07:39.148Z,12.39
2019-05-14T20:10:09.138Z,12.26
2019-05-14T20:12:39.251Z,12.30
2019-05-14T20:15:09.780Z,12.20
2019-05-14T20:17:38.986Z,12.29
2019-05-14T20:20:09.394Z,12.29
2019-05-14T20:22:39.549Z,12.20
2019-05-14T20:25:09.859Z,11.99
2019-05-14T20:27:39.392Z,11.97
2019-05-14T20:30:09.915Z,11.80
2019-05-14T20:32:38.989Z,11.77
2019-05-14T20:35:09.889Z,11.94
2019-05-14T20:37:39.246Z,11.69
2019-05-14T20:40:10.342Z,11.56
2019-05-14T20:42:39.581Z,11.50
2019-05-14T20:45:09.750Z,11.45
2019-05-14T20:47:39.285Z,11.70
2019-05-14T20:50:09.293Z,11.76
2019-05-14T20:52:38.307Z,11.72
2019-05-14T20:55:09.439Z,11.40
2019-05-14T20:57:38.848Z,11.30
2019-05-14T21:00:11.578Z,11.40
2019-05-14T21:02:40.158Z,11.26
2019-05-14T21:05:13.633Z,11.06
2019-05-14T21:07:40.907Z,11.00
2019-05-14T21:10:10.885Z,10.96
2019-05-14T21:12:39.909Z,11.11
2019-05-14T21:15:09.860Z,11.05
2019-05-14T21:17:39.804Z,11.13
2019-05-14T21:20:09.320Z,11.18
2019-05-14T21:22:40.113Z,11.08
2019-05-14T21:25:12.544Z,10.85
2019-05-14T21:27:47.860Z,10.73
2019-05-14T21:30:11.970Z,10.69
2019-05-14T21:32:42.552Z,10.68
2019-05-14T21:35:12.768Z,10.62
2019-05-14T21:37:41.824Z,10.47
2019-05-14T21:40:11.637Z,10.40
2019-05-14T21:42:40.651Z,10.62
2019-05-14T21:45:10.269Z,10.56
2019-05-14T21:47:39.317Z,10.47
2019-05-14T21:50:09.308Z,10.37
2019-05-14T21:52:42.190Z,10.39
2019-05-14T21:55:09.977Z,10.30
2019-05-14T21:57:53.155Z,10.23
2019-05-14T22:00:18.447Z,10.20
2019-05-14T22:02:49.187Z,10.01
2019-05-14T22:05:18.989Z,10.10
2019-05-14T22:07:48.704Z,10.06
2019-05-14T22:10:19.266Z,10.23
2019-05-14T22:12:48.876Z,10.15
2019-05-14T22:15:19.909Z,9.89
2019-05-14T22:17:49.368Z,9.90
2019-05-14T22:20:19.335Z,9.74
2019-05-14T22:22:49.294Z,9.81
2019-05-14T22:25:18.970Z,9.76
2019-05-14T22:27:49.168Z,9.72
2019-05-14T22:30:19.062Z,9.80
2019-05-14T22:32:48.095Z,9.49
2019-05-14T22:35:18.684Z,9.48
2019-05-14T22:37:48.366Z,9.57
2019-05-14T22:40:18.558Z,9.30
2019-05-14T22:42:47.602Z,9.35
2019-05-14T22:45:18.511Z,9.11
2019-05-14T22:47:49.037Z,8.98
2019-05-14T22:50:18.779Z,9.04
2019-05-14T22:52:48.659Z,9.06
2019-05-14T22:55:18.063Z,9.11
2019-05-14T22:57:48.353Z,8.72
2019-05-14T23:00:20.930Z,8.72
2019-05-14T23:02:49.171Z,8.50
2019-05-14T23:05:19.240Z,8.37
2019-05-14T23:07:48.677Z,8.49
2019-05-14T23:10:18.336Z,8.44
2019-05-14T23:12:48.875Z,8.34
2019-05-14T23:15:18.314Z,8.43
2019-05-14T23:17:48.027Z,8.19
2019-05-14T23:20:19.547Z,8.11
2019-05-14T23:22:49.165Z,8.26
2019-05-14T23:25:18.746Z,8.37
2019-05-14T23:27:48.374Z,8.37
2019-05-14T23:30:20.830Z,8.34
2019-05-14T23:32:50.113Z,8.27
2019-05-14T23:35:19.178Z,8.13
2019-05-14T23:37:49.015Z,8.03
2019-05-14T23:40:18.526Z,7.97
2019-05-14T23:42:48.993Z,7.92
2019-05-14T23:45:19.089Z,8.04
2019-05-14T23:47:49.304Z,8.01
2019-05-14T23:50:18.739Z,8.07
2019-05-14T23:52:49.272Z,8.17
2019-05-14T23:55:18.774Z,8.15
2019-05-14T23:57:48.257Z,8.16
